createdAt,value
2022-09-28T00:01:25.851Z,17.38
2022-09-28T00:06:24.179Z,17.21
2022-09-28T00:11:27.815Z,17.21
2022-09-28T00:16:33.585Z,17.17
2022-09-28T00:21:32.122Z,17.22
2022-09-28T00:26:32.599Z,17.46
2022-09-28T00:31:36.385Z,17.55
2022-09-28T00:36:33.582Z,17.67
2022-09-28T00:41:30.407Z,17.73
2022-09-28T00:46:30.995Z,17.81
2022-09-28T00:51:30.018Z,17.87
2022-09-28T00:56:31.403Z,18.10
2022-09-28T01:01:28.343Z,18.23
2022-09-28T01:06:30.747Z,18.33
2022-09-28T01:11:27.884Z,18.30
2022-09-28T01:16:35.226Z,18.18
2022-09-28T01:21:50.970Z,18.08
2022-09-28T01:26:55.841Z,18.02
2022-09-28T01:31:57.001Z,18.04
2022-09-28T01:36:59.302Z,17.83
2022-09-28T01:41:59.438Z,17.88
2022-09-28T01:47:02.980Z,17.99
2022-09-28T01:52:01.891Z,17.94
2022-09-28T01:57:02.871Z,17.97
2022-09-28T02:02:05.867Z,18.42
2022-09-28T02:07:07.915Z,18.73
2022-09-28T02:12:09.650Z,18.84
2022-09-28T02:17:07.931Z,18.93
2022-09-28T02:22:12.796Z,19.04
2022-09-28T02:27:13.056Z,19.04
2022-09-28T02:32:13.345Z,19.03
2022-09-28T02:37:11.433Z,18.99
2022-09-28T02:42:19.707Z,18.79
2022-09-28T02:47:22.436Z,19.00
2022-09-28T02:52:34.180Z,18.93
2022-09-28T02:57:36.896Z,18.93
2022-09-28T03:02:39.464Z,18.57
2022-09-28T03:07:39.494Z,18.32
2022-09-28T03:12:37.062Z,18.04
2022-09-28T03:17:36.574Z,17.91
2022-09-28T03:22:33.428Z,17.41
2022-09-28T03:28:04.477Z,17.47
2022-09-28T03:33:06.497Z,17.42
2022-09-28T03:38:06.385Z,17.42
2022-09-28T03:43:07.246Z,17.15
2022-09-28T03:48:04.343Z,17.01
2022-09-28T03:53:06.828Z,16.86
2022-09-28T03:58:03.553Z,16.61
2022-09-28T04:03:02.050Z,16.46
2022-09-28T04:07:58.749Z,16.64
2022-09-28T04:12:56.415Z,16.89
2022-09-28T04:17:53.313Z,17.05
2022-09-28T04:23:14.749Z,17.43
2022-09-28T04:28:31.987Z,17.80
2022-09-28T04:33:29.579Z,18.09
2022-09-28T04:38:48.413Z,18.36
2022-09-28T04:43:46.250Z,18.55
2022-09-28T04:48:45.188Z,18.74
2022-09-28T04:54:05.075Z,18.65
2022-09-28T04:59:13.541Z,18.50
2022-09-28T05:04:25.601Z,18.24
2022-09-28T05:09:41.401Z,17.81
2022-09-28T05:14:42.748Z,17.87
2022-09-28T05:19:40.476Z,17.64
2022-09-28T05:24:37.722Z,17.67
2022-09-28T05:29:37.787Z,17.77
2022-09-28T05:35:00.607Z,17.63
2022-09-28T05:40:33.621Z,17.70
2022-09-28T05:45:30.659Z,17.84
2022-09-28T05:50:43.313Z,17.98
2022-09-28T05:55:45.936Z,17.99
2022-09-28T06:00:43.629Z,18.12
2022-09-28T06:05:43.049Z,18.20
2022-09-28T06:10:40.364Z,18.24
2022-09-28T06:15:37.451Z,18.29
2022-09-28T06:20:35.021Z,18.17
2022-09-28T06:25:48.611Z,18.39
2022-09-28T06:30:47.765Z,18.47
2022-09-28T06:36:24.278Z,18.66
2022-09-28T06:42:49.215Z,18.61
2022-09-28T06:48:20.933Z,18.87
2022-09-28T07:00:30.782Z,19.29
2022-09-28T07:05:58.942Z,19.31
2022-09-28T07:11:23.245Z,19.51
2022-09-28T07:17:11.792Z,19.54
2022-09-28T07:34:05.914Z,20.12
2022-09-28T07:39:21.845Z,20.23
2022-09-28T07:44:21.694Z,20.28
2022-09-28T07:49:26.016Z,20.36
2022-09-28T07:54:51.676Z,20.52
2022-09-28T08:00:30.827Z,20.75
2022-09-28T08:05:36.510Z,20.78
2022-09-28T08:10:33.691Z,21.11
2022-09-28T08:16:25.138Z,21.14
2022-09-28T08:21:44.926Z,21.12
2022-09-28T08:26:43.017Z,21.23
2022-09-28T08:31:42.989Z,21.29
2022-09-28T08:37:02.540Z,21.44
2022-09-28T08:42:15.694Z,21.72
2022-09-28T08:47:52.384Z,21.84
2022-09-28T08:53:04.507Z,21.89
2022-09-28T08:58:35.954Z,22.25
2022-09-28T09:03:37.998Z,22.22
2022-09-28T09:09:00.462Z,22.34
2022-09-28T09:14:09.391Z,22.57
2022-09-28T09:19:12.868Z,22.62
2022-09-28T09:24:42.062Z,22.77
2022-09-28T09:29:58.454Z,22.94
2022-09-28T09:35:00.972Z,23.06
2022-09-28T09:40:32.940Z,23.06
2022-09-28T09:45:58.198Z,23.12
2022-09-28T09:51:14.917Z,23.21
2022-09-28T09:56:15.221Z,23.31
2022-09-28T10:01:40.076Z,23.35
2022-09-28T10:06:54.651Z,23.47
2022-09-28T10:11:54.436Z,23.76
2022-09-28T10:16:53.051Z,23.63
2022-09-28T10:22:17.335Z,23.67
2022-09-28T10:27:16.785Z,23.67
2022-09-28T10:32:25.922Z,23.82
2022-09-28T10:37:27.237Z,23.92
2022-09-28T10:42:40.484Z,24.00
2022-09-28T10:47:50.506Z,24.05
2022-09-28T10:52:53.217Z,24.16
2022-09-28T10:58:25.016Z,24.14
2022-09-28T11:03:25.021Z,24.22
2022-09-28T11:08:25.253Z,24.28
2022-09-28T11:13:23.370Z,24.30
2022-09-28T11:18:31.806Z,24.40
2022-09-28T11:23:33.789Z,24.45
2022-09-28T11:28:51.187Z,24.44
2022-09-28T11:34:06.373Z,24.49
2022-09-28T11:39:23.136Z,24.65
2022-09-28T11:44:37.197Z,24.64
2022-09-28T11:49:40.202Z,24.58
2022-09-28T11:54:40.540Z,24.64
2022-09-28T11:59:40.882Z,24.68
2022-09-28T12:04:41.561Z,24.67
2022-09-28T12:09:49.181Z,24.69
2022-09-28T12:14:51.428Z,24.71
2022-09-28T12:19:49.328Z,24.78
2022-09-28T12:24:51.008Z,24.84
2022-09-28T12:29:59.516Z,24.87
2022-09-28T12:34:56.771Z,24.80
2022-09-28T12:40:09.051Z,24.82
2022-09-28T12:45:21.096Z,24.93
2022-09-28T12:50:38.277Z,24.98
2022-09-28T12:55:49.477Z,24.99
2022-09-28T13:00:53.789Z,24.98
2022-09-28T13:06:11.227Z,25.06
2022-09-28T13:11:15.050Z,25.01
2022-09-28T13:16:20.831Z,24.93
2022-09-28T13:21:28.435Z,24.99
2022-09-28T13:26:28.697Z,25.15
2022-09-28T13:31:33.038Z,25.07
2022-09-28T13:36:47.193Z,25.14
2022-09-28T13:41:50.061Z,25.15
2022-09-28T13:46:52.451Z,25.22
2022-09-28T13:51:57.620Z,25.20
2022-09-28T13:57:03.033Z,25.33
2022-09-28T14:02:06.902Z,25.22
2022-09-28T14:07:10.023Z,25.22
2022-09-28T14:12:25.998Z,25.19
2022-09-28T14:17:49.698Z,25.19
2022-09-28T14:29:08.099Z,25.12
2022-09-28T14:34:24.023Z,25.11
2022-09-28T14:39:44.422Z,25.22
2022-09-28T14:45:05.017Z,25.31
2022-09-28T14:50:20.934Z,25.24
2022-09-28T14:55:20.120Z,25.28
2022-09-28T15:00:48.041Z,25.23
2022-09-28T15:06:12.511Z,25.19
2022-09-28T15:17:19.186Z,25.02
2022-09-28T15:22:44.827Z,24.93
2022-09-28T15:33:51.903Z,24.75
2022-09-28T15:38:53.239Z,24.69
2022-09-28T15:44:14.197Z,24.63
2022-09-28T15:49:24.333Z,24.59
2022-09-28T15:54:23.882Z,24.53
2022-09-28T15:59:25.825Z,24.48
2022-09-28T16:04:35.144Z,24.45
2022-09-28T16:09:38.837Z,24.38
2022-09-28T16:14:40.518Z,24.35
2022-09-28T16:19:43.265Z,24.32
2022-09-28T16:24:41.026Z,24.28
2022-09-28T16:29:40.472Z,24.26
2022-09-28T16:34:37.401Z,24.21
2022-09-28T16:39:42.432Z,24.30
2022-09-28T16:44:39.950Z,24.31
2022-09-28T16:49:39.343Z,24.28
2022-09-28T16:54:54.184Z,24.29
2022-09-28T16:59:52.682Z,24.27
2022-09-28T17:04:49.601Z,24.18
2022-09-28T17:09:46.252Z,24.10
2022-09-28T17:14:44.159Z,24.02
2022-09-28T17:19:41.710Z,23.98
2022-09-28T17:36:32.299Z,23.77
2022-09-28T17:42:31.574Z,23.89
2022-09-28T17:47:34.273Z,23.91
2022-09-28T17:52:35.213Z,23.94
2022-09-28T17:57:39.139Z,23.88
2022-09-28T18:02:37.394Z,23.83
2022-09-28T18:07:34.939Z,23.82
2022-09-28T18:12:48.863Z,23.85
2022-09-28T18:17:45.685Z,23.72
2022-09-28T18:22:43.196Z,23.75
2022-09-28T18:27:40.018Z,23.58
2022-09-28T18:32:37.073Z,23.68
2022-09-28T18:37:36.033Z,23.55
2022-09-28T18:42:35.089Z,23.49
2022-09-28T18:47:32.374Z,23.59
2022-09-28T18:52:32.092Z,23.52
2022-09-28T18:57:29.253Z,23.56
2022-09-28T19:02:31.829Z,23.61
2022-09-28T19:07:28.773Z,23.51
2022-09-28T19:12:26.158Z,23.36
2022-09-28T19:17:29.385Z,23.31
2022-09-28T19:22:30.873Z,23.35
2022-09-28T19:27:28.389Z,23.35
2022-09-28T19:32:28.828Z,23.15
2022-09-28T19:37:26.261Z,22.98
2022-09-28T19:42:23.210Z,23.08
2022-09-28T19:47:21.188Z,23.13
2022-09-28T19:52:17.788Z,23.31
2022-09-28T19:57:17.940Z,23.42
2022-09-28T20:02:14.864Z,23.46
2022-09-28T20:07:14.931Z,23.43
2022-09-28T20:12:12.905Z,23.17
2022-09-28T20:17:10.520Z,22.77
2022-09-28T20:22:11.567Z,22.86
2022-09-28T20:27:11.465Z,22.97
2022-09-28T20:32:08.379Z,22.92
2022-09-28T20:37:06.155Z,23.06
2022-09-28T20:42:02.921Z,23.21
2022-09-28T20:46:59.979Z,23.13
2022-09-28T20:52:08.303Z,22.95
2022-09-28T20:57:16.853Z,23.05
2022-09-28T21:02:14.921Z,22.97
2022-09-28T21:07:15.876Z,22.85
2022-09-28T21:12:19.871Z,22.71
2022-09-28T21:17:23.024Z,22.68
2022-09-28T21:22:28.157Z,22.83
2022-09-28T21:27:32.823Z,22.73
2022-09-28T21:32:29.632Z,22.59
2022-09-28T21:37:30.842Z,22.55
2022-09-28T21:42:28.160Z,22.51
2022-09-28T21:47:24.845Z,22.54
2022-09-28T21:52:21.455Z,22.59
2022-09-28T21:57:20.135Z,22.71
2022-09-28T22:02:18.904Z,22.74
2022-09-28T22:07:15.936Z,22.77
2022-09-28T22:12:13.474Z,22.84
2022-09-28T22:17:10.639Z,22.93
2022-09-28T22:22:13.428Z,22.90
2022-09-28T22:27:10.597Z,22.79
2022-09-28T22:32:07.803Z,22.44
2022-09-28T22:37:04.617Z,22.27
2022-09-28T22:42:02.103Z,21.71
2022-09-28T22:47:00.849Z,21.16
2022-09-28T22:51:57.651Z,21.25
2022-09-28T22:56:54.528Z,21.46
2022-09-28T23:01:51.862Z,21.70
2022-09-28T23:06:48.511Z,21.74
2022-09-28T23:11:45.428Z,21.59
2022-09-28T23:16:42.186Z,21.92
2022-09-28T23:21:39.519Z,22.11
2022-09-28T23:26:36.397Z,22.20
2022-09-28T23:31:33.632Z,22.07
2022-09-28T23:36:30.374Z,22.10
2022-09-28T23:41:30.293Z,21.99
2022-09-28T23:46:31.890Z,22.22
2022-09-28T23:51:33.443Z,22.09
2022-09-28T23:56:31.081Z,21.97
